sensor_id;sensor_type;location;lat;lon;timestamp;P1;durP1;ratioP1;P2;durP2;ratioP2
76752;SDS011;65687;51.308;16.916;2024-01-25T00:00:50;9.00;;;1.80;;
76752;SDS011;65687;51.308;16.916;2024-01-25T00:06:12;4.90;;;1.90;;
76752;SDS011;65687;51.308;16.916;2024-01-25T00:11:14;8.00;;;2.30;;
76752;SDS011;65687;51.308;16.916;2024-01-25T00:16:16;6.60;;;2.20;;
76752;SDS011;65687;51.308;16.916;2024-01-25T00:21:18;5.70;;;1.70;;
76752;SDS011;65687;51.308;16.916;2024-01-25T00:26:19;5.70;;;1.50;;
76752;SDS011;65687;51.308;16.916;2024-01-25T00:31:21;6.60;;;2.00;;
76752;SDS011;65687;51.308;16.916;2024-01-25T00:36:23;10.00;;;3.00;;
76752;SDS011;65687;51.308;16.916;2024-01-25T00:41:25;11.60;;;3.10;;
76752;SDS011;65687;51.308;16.916;2024-01-25T00:46:28;8.10;;;2.50;;
76752;SDS011;65687;51.308;16.916;2024-01-25T00:51:30;8.80;;;1.90;;
76752;SDS011;65687;51.308;16.916;2024-01-25T00:56:32;5.40;;;1.70;;
76752;SDS011;65687;51.308;16.916;2024-01-25T01:01:34;8.40;;;2.10;;
76752;SDS011;65687;51.308;16.916;2024-01-25T01:06:36;5.50;;;1.90;;
76752;SDS011;65687;51.308;16.916;2024-01-25T01:11:38;9.90;;;2.20;;
76752;SDS011;65687;51.308;16.916;2024-01-25T01:16:40;7.10;;;2.20;;
76752;SDS011;65687;51.308;16.916;2024-01-25T01:21:41;8.50;;;2.20;;
76752;SDS011;65687;51.308;16.916;2024-01-25T01:26:45;8.40;;;2.50;;
76752;SDS011;65687;51.308;16.916;2024-01-25T01:31:47;8.70;;;2.40;;
76752;SDS011;65687;51.308;16.916;2024-01-25T01:36:49;4.80;;;1.70;;
76752;SDS011;65687;51.308;16.916;2024-01-25T01:41:51;10.00;;;2.10;;
76752;SDS011;65687;51.308;16.916;2024-01-25T01:46:52;7.20;;;1.90;;
76752;SDS011;65687;51.308;16.916;2024-01-25T01:51:56;6.50;;;2.00;;
76752;SDS011;65687;51.308;16.916;2024-01-25T01:56:58;8.80;;;2.40;;
76752;SDS011;65687;51.308;16.916;2024-01-25T02:01:59;7.80;;;1.90;;
76752;SDS011;65687;51.308;16.916;2024-01-25T02:07:01;6.20;;;2.20;;
76752;SDS011;65687;51.308;16.916;2024-01-25T02:12:03;4.30;;;1.90;;
76752;SDS011;65687;51.308;16.916;2024-01-25T02:17:05;8.70;;;2.00;;
76752;SDS011;65687;51.308;16.916;2024-01-25T02:22:07;7.00;;;2.00;;
76752;SDS011;65687;51.308;16.916;2024-01-25T02:27:08;5.70;;;2.10;;
76752;SDS011;65687;51.308;16.916;2024-01-25T02:32:10;11.70;;;2.40;;
76752;SDS011;65687;51.308;16.916;2024-01-25T02:37:12;7.90;;;2.10;;
76752;SDS011;65687;51.308;16.916;2024-01-25T02:42:15;7.30;;;2.20;;
76752;SDS011;65687;51.308;16.916;2024-01-25T02:47:18;5.00;;;1.30;;
76752;SDS011;65687;51.308;16.916;2024-01-25T02:52:20;9.30;;;2.20;;
76752;SDS011;65687;51.308;16.916;2024-01-25T02:57:21;8.10;;;2.00;;
76752;SDS011;65687;51.308;16.916;2024-01-25T03:02:23;9.90;;;2.40;;
76752;SDS011;65687;51.308;16.916;2024-01-25T03:07:25;7.10;;;2.00;;
76752;SDS011;65687;51.308;16.916;2024-01-25T03:12:26;8.00;;;2.20;;
76752;SDS011;65687;51.308;16.916;2024-01-25T03:17:28;8.00;;;2.30;;
76752;SDS011;65687;51.308;16.916;2024-01-25T03:22:29;6.40;;;1.60;;
76752;SDS011;65687;51.308;16.916;2024-01-25T03:27:31;10.80;;;2.50;;
76752;SDS011;65687;51.308;16.916;2024-01-25T03:32:33;7.80;;;2.20;;
76752;SDS011;65687;51.308;16.916;2024-01-25T03:37:35;4.20;;;1.60;;
76752;SDS011;65687;51.308;16.916;2024-01-25T03:42:36;5.50;;;1.60;;
76752;SDS011;65687;51.308;16.916;2024-01-25T03:47:38;6.60;;;1.90;;
76752;SDS011;65687;51.308;16.916;2024-01-25T03:52:40;5.40;;;2.00;;
76752;SDS011;65687;51.308;16.916;2024-01-25T03:57:41;5.60;;;1.60;;
76752;SDS011;65687;51.308;16.916;2024-01-25T04:02:43;5.40;;;1.60;;
76752;SDS011;65687;51.308;16.916;2024-01-25T04:07:45;6.90;;;2.20;;
76752;SDS011;65687;51.308;16.916;2024-01-25T04:12:46;5.60;;;1.80;;
76752;SDS011;65687;51.308;16.916;2024-01-25T04:17:48;7.00;;;1.60;;
76752;SDS011;65687;51.308;16.916;2024-01-25T04:22:50;6.70;;;1.70;;
76752;SDS011;65687;51.308;16.916;2024-01-25T04:27:51;6.60;;;1.70;;
76752;SDS011;65687;51.308;16.916;2024-01-25T04:32:53;3.50;;;1.50;;
76752;SDS011;65687;51.308;16.916;2024-01-25T04:37:54;8.90;;;2.10;;
76752;SDS011;65687;51.308;16.916;2024-01-25T04:42:56;5.40;;;2.10;;
76752;SDS011;65687;51.308;16.916;2024-01-25T04:47:58;11.30;;;4.50;;
76752;SDS011;65687;51.308;16.916;2024-01-25T04:53:01;5.70;;;2.40;;
76752;SDS011;65687;51.308;16.916;2024-01-25T04:58:03;7.50;;;2.30;;
76752;SDS011;65687;51.308;16.916;2024-01-25T05:03:05;8.70;;;2.80;;
76752;SDS011;65687;51.308;16.916;2024-01-25T05:08:07;6.80;;;1.70;;
76752;SDS011;65687;51.308;16.916;2024-01-25T05:13:09;9.40;;;2.40;;
76752;SDS011;65687;51.308;16.916;2024-01-25T05:18:11;7.60;;;3.20;;
76752;SDS011;65687;51.308;16.916;2024-01-25T05:23:12;14.60;;;7.10;;
76752;SDS011;65687;51.308;16.916;2024-01-25T05:28:14;8.30;;;3.90;;
76752;SDS011;65687;51.308;16.916;2024-01-25T05:33:16;12.60;;;3.60;;
76752;SDS011;65687;51.308;16.916;2024-01-25T05:38:17;7.90;;;3.10;;
76752;SDS011;65687;51.308;16.916;2024-01-25T05:43:19;14.20;;;4.00;;
76752;SDS011;65687;51.308;16.916;2024-01-25T05:48:21;9.40;;;3.10;;
76752;SDS011;65687;51.308;16.916;2024-01-25T05:53:22;11.70;;;2.80;;
76752;SDS011;65687;51.308;16.916;2024-01-25T05:58:24;7.50;;;2.50;;
76752;SDS011;65687;51.308;16.916;2024-01-25T06:03:26;9.30;;;3.00;;
76752;SDS011;65687;51.308;16.916;2024-01-25T06:08:27;8.60;;;2.60;;
76752;SDS011;65687;51.308;16.916;2024-01-25T06:13:29;11.30;;;2.90;;
76752;SDS011;65687;51.308;16.916;2024-01-25T06:18:33;9.50;;;2.90;;
76752;SDS011;65687;51.308;16.916;2024-01-25T06:23:34;7.20;;;2.50;;
76752;SDS011;65687;51.308;16.916;2024-01-25T06:28:36;11.70;;;3.00;;
76752;SDS011;65687;51.308;16.916;2024-01-25T06:33:38;7.70;;;3.00;;
76752;SDS011;65687;51.308;16.916;2024-01-25T06:38:39;13.90;;;4.40;;
76752;SDS011;65687;51.308;16.916;2024-01-25T06:43:41;7.10;;;2.50;;
76752;SDS011;65687;51.308;16.916;2024-01-25T06:48:43;11.90;;;3.20;;
76752;SDS011;65687;51.308;16.916;2024-01-25T06:53:45;12.80;;;3.60;;
76752;SDS011;65687;51.308;16.916;2024-01-25T06:58:46;13.20;;;3.50;;
76752;SDS011;65687;51.308;16.916;2024-01-25T07:03:48;13.90;;;3.80;;
76752;SDS011;65687;51.308;16.916;2024-01-25T07:08:51;9.00;;;2.50;;
76752;SDS011;65687;51.308;16.916;2024-01-25T07:13:54;9.20;;;2.80;;
76752;SDS011;65687;51.308;16.916;2024-01-25T07:18:56;9.80;;;2.00;;
76752;SDS011;65687;51.308;16.916;2024-01-25T07:23:59;9.00;;;2.10;;
76752;SDS011;65687;51.308;16.916;2024-01-25T07:29:02;7.60;;;2.40;;
76752;SDS011;65687;51.308;16.916;2024-01-25T07:34:04;11.60;;;3.50;;
76752;SDS011;65687;51.308;16.916;2024-01-25T07:39:05;8.10;;;2.60;;
76752;SDS011;65687;51.308;16.916;2024-01-25T07:44:07;11.00;;;2.90;;
76752;SDS011;65687;51.308;16.916;2024-01-25T07:49:09;10.30;;;3.40;;
76752;SDS011;65687;51.308;16.916;2024-01-25T07:54:10;10.20;;;4.20;;
76752;SDS011;65687;51.308;16.916;2024-01-25T07:59:12;12.40;;;4.10;;
76752;SDS011;65687;51.308;16.916;2024-01-25T08:04:14;6.90;;;2.60;;
76752;SDS011;65687;51.308;16.916;2024-01-25T08:09:16;14.40;;;3.50;;
76752;SDS011;65687;51.308;16.916;2024-01-25T08:14:18;16.10;;;5.40;;
76752;SDS011;65687;51.308;16.916;2024-01-25T08:19:20;9.90;;;3.30;;
76752;SDS011;65687;51.308;16.916;2024-01-25T08:24:22;11.50;;;3.60;;
76752;SDS011;65687;51.308;16.916;2024-01-25T08:29:23;8.80;;;2.40;;
76752;SDS011;65687;51.308;16.916;2024-01-25T08:34:25;8.80;;;3.00;;
76752;SDS011;65687;51.308;16.916;2024-01-25T08:39:27;10.10;;;3.00;;
76752;SDS011;65687;51.308;16.916;2024-01-25T08:44:29;8.20;;;2.30;;
76752;SDS011;65687;51.308;16.916;2024-01-25T08:49:30;7.80;;;2.80;;
76752;SDS011;65687;51.308;16.916;2024-01-25T08:54:32;9.30;;;2.30;;
76752;SDS011;65687;51.308;16.916;2024-01-25T08:59:34;9.00;;;2.30;;
76752;SDS011;65687;51.308;16.916;2024-01-25T09:04:39;8.70;;;2.10;;
76752;SDS011;65687;51.308;16.916;2024-01-25T09:09:44;7.20;;;2.10;;
76752;SDS011;65687;51.308;16.916;2024-01-25T09:14:46;8.90;;;2.50;;
76752;SDS011;65687;51.308;16.916;2024-01-25T09:19:48;6.60;;;2.50;;
76752;SDS011;65687;51.308;16.916;2024-01-25T09:24:53;6.20;;;2.40;;
76752;SDS011;65687;51.308;16.916;2024-01-25T09:29:54;9.00;;;3.00;;
76752;SDS011;65687;51.308;16.916;2024-01-25T09:34:56;10.20;;;2.70;;
76752;SDS011;65687;51.308;16.916;2024-01-25T09:39:58;9.40;;;2.70;;
76752;SDS011;65687;51.308;16.916;2024-01-25T09:45:00;7.10;;;2.00;;
76752;SDS011;65687;51.308;16.916;2024-01-25T09:50:02;7.00;;;2.40;;
76752;SDS011;65687;51.308;16.916;2024-01-25T09:55:08;5.90;;;2.30;;
76752;SDS011;65687;51.308;16.916;2024-01-25T10:00:14;8.50;;;2.80;;
76752;SDS011;65687;51.308;16.916;2024-01-25T10:05:17;17.90;;;5.40;;
76752;SDS011;65687;51.308;16.916;2024-01-25T10:10:19;23.90;;;7.00;;
76752;SDS011;65687;51.308;16.916;2024-01-25T10:15:22;19.70;;;6.40;;
76752;SDS011;65687;51.308;16.916;2024-01-25T10:20:25;14.70;;;5.00;;
76752;SDS011;65687;51.308;16.916;2024-01-25T10:25:28;13.30;;;4.80;;
76752;SDS011;65687;51.308;16.916;2024-01-25T10:30:33;15.10;;;5.00;;
76752;SDS011;65687;51.308;16.916;2024-01-25T10:35:35;11.30;;;3.00;;
76752;SDS011;65687;51.308;16.916;2024-01-25T10:40:38;11.90;;;3.40;;
76752;SDS011;65687;51.308;16.916;2024-01-25T10:45:41;9.70;;;2.80;;
76752;SDS011;65687;51.308;16.916;2024-01-25T10:50:44;5.80;;;2.40;;
76752;SDS011;65687;51.308;16.916;2024-01-25T10:55:48;9.20;;;3.40;;
76752;SDS011;65687;51.308;16.916;2024-01-25T11:00:50;6.90;;;2.50;;
76752;SDS011;65687;51.308;16.916;2024-01-25T11:06:08;5.30;;;2.40;;
76752;SDS011;65687;51.308;16.916;2024-01-25T11:11:11;9.30;;;2.80;;
76752;SDS011;65687;51.308;16.916;2024-01-25T11:16:19;8.60;;;3.10;;
76752;SDS011;65687;51.308;16.916;2024-01-25T11:26:44;8.50;;;2.20;;
76752;SDS011;65687;51.308;16.916;2024-01-25T11:31:46;10.70;;;3.80;;
76752;SDS011;65687;51.308;16.916;2024-01-25T11:36:49;7.40;;;2.40;;
76752;SDS011;65687;51.308;16.916;2024-01-25T11:41:51;9.30;;;2.80;;
76752;SDS011;65687;51.308;16.916;2024-01-25T11:46:54;10.20;;;2.80;;
76752;SDS011;65687;51.308;16.916;2024-01-25T11:51:57;6.60;;;2.30;;
76752;SDS011;65687;51.308;16.916;2024-01-25T11:57:00;8.20;;;2.40;;
76752;SDS011;65687;51.308;16.916;2024-01-25T12:02:02;9.90;;;3.60;;
76752;SDS011;65687;51.308;16.916;2024-01-25T12:07:05;8.20;;;2.80;;
76752;SDS011;65687;51.308;16.916;2024-01-25T12:12:08;9.90;;;3.20;;
76752;SDS011;65687;51.308;16.916;2024-01-25T12:17:11;9.40;;;2.90;;
76752;SDS011;65687;51.308;16.916;2024-01-25T12:22:19;7.80;;;2.80;;
76752;SDS011;65687;51.308;16.916;2024-01-25T12:27:21;10.90;;;3.00;;
76752;SDS011;65687;51.308;16.916;2024-01-25T12:32:24;8.10;;;2.90;;
76752;SDS011;65687;51.308;16.916;2024-01-25T12:37:25;13.90;;;2.50;;
76752;SDS011;65687;51.308;16.916;2024-01-25T12:42:27;9.80;;;3.10;;
76752;SDS011;65687;51.308;16.916;2024-01-25T12:47:29;8.30;;;2.40;;
76752;SDS011;65687;51.308;16.916;2024-01-25T12:52:31;8.10;;;2.10;;
76752;SDS011;65687;51.308;16.916;2024-01-25T12:57:32;9.50;;;2.60;;
76752;SDS011;65687;51.308;16.916;2024-01-25T13:02:35;7.70;;;2.30;;
76752;SDS011;65687;51.308;16.916;2024-01-25T13:07:37;6.40;;;2.40;;
76752;SDS011;65687;51.308;16.916;2024-01-25T13:12:38;8.20;;;2.50;;
76752;SDS011;65687;51.308;16.916;2024-01-25T13:17:40;8.10;;;2.20;;
76752;SDS011;65687;51.308;16.916;2024-01-25T13:22:42;5.10;;;2.30;;
76752;SDS011;65687;51.308;16.916;2024-01-25T13:27:44;6.00;;;2.00;;
76752;SDS011;65687;51.308;16.916;2024-01-25T13:32:45;7.60;;;2.20;;
76752;SDS011;65687;51.308;16.916;2024-01-25T13:37:47;8.40;;;1.80;;
76752;SDS011;65687;51.308;16.916;2024-01-25T13:42:49;10.70;;;2.40;;
76752;SDS011;65687;51.308;16.916;2024-01-25T13:47:50;6.90;;;1.90;;
76752;SDS011;65687;51.308;16.916;2024-01-25T13:52:52;6.90;;;2.20;;
76752;SDS011;65687;51.308;16.916;2024-01-25T13:57:54;9.00;;;2.10;;
76752;SDS011;65687;51.308;16.916;2024-01-25T14:02:56;7.50;;;1.70;;
76752;SDS011;65687;51.308;16.916;2024-01-25T14:07:57;9.30;;;2.20;;
76752;SDS011;65687;51.308;16.916;2024-01-25T14:13:00;7.40;;;2.60;;
76752;SDS011;65687;51.308;16.916;2024-01-25T14:18:02;11.70;;;2.50;;
76752;SDS011;65687;51.308;16.916;2024-01-25T14:23:04;8.60;;;2.20;;
76752;SDS011;65687;51.308;16.916;2024-01-25T14:28:06;9.90;;;2.80;;
76752;SDS011;65687;51.308;16.916;2024-01-25T14:33:07;5.30;;;1.90;;
76752;SDS011;65687;51.308;16.916;2024-01-25T14:38:09;9.10;;;2.60;;
76752;SDS011;65687;51.308;16.916;2024-01-25T14:43:11;8.50;;;2.70;;
76752;SDS011;65687;51.308;16.916;2024-01-25T14:48:13;7.80;;;2.50;;
76752;SDS011;65687;51.308;16.916;2024-01-25T14:53:15;6.20;;;2.10;;
76752;SDS011;65687;51.308;16.916;2024-01-25T14:58:19;7.70;;;2.20;;
76752;SDS011;65687;51.308;16.916;2024-01-25T15:03:24;7.10;;;2.20;;
76752;SDS011;65687;51.308;16.916;2024-01-25T15:08:26;9.80;;;2.30;;
76752;SDS011;65687;51.308;16.916;2024-01-25T15:13:27;5.90;;;2.10;;
76752;SDS011;65687;51.308;16.916;2024-01-25T15:18:29;8.10;;;3.40;;
76752;SDS011;65687;51.308;16.916;2024-01-25T15:23:31;8.50;;;2.90;;
76752;SDS011;65687;51.308;16.916;2024-01-25T15:28:32;8.30;;;3.00;;
76752;SDS011;65687;51.308;16.916;2024-01-25T15:33:35;10.90;;;4.80;;
76752;SDS011;65687;51.308;16.916;2024-01-25T15:38:37;6.70;;;2.60;;
76752;SDS011;65687;51.308;16.916;2024-01-25T15:43:39;10.60;;;2.80;;
76752;SDS011;65687;51.308;16.916;2024-01-25T15:48:40;7.70;;;3.10;;
76752;SDS011;65687;51.308;16.916;2024-01-25T15:53:42;16.90;;;6.00;;
76752;SDS011;65687;51.308;16.916;2024-01-25T15:58:44;12.10;;;4.80;;
76752;SDS011;65687;51.308;16.916;2024-01-25T16:03:45;10.50;;;3.50;;
76752;SDS011;65687;51.308;16.916;2024-01-25T16:08:47;11.40;;;3.60;;
76752;SDS011;65687;51.308;16.916;2024-01-25T16:13:50;9.60;;;3.80;;
76752;SDS011;65687;51.308;16.916;2024-01-25T16:18:52;10.40;;;2.90;;
76752;SDS011;65687;51.308;16.916;2024-01-25T16:23:53;10.00;;;3.80;;
76752;SDS011;65687;51.308;16.916;2024-01-25T16:28:55;11.50;;;4.70;;
76752;SDS011;65687;51.308;16.916;2024-01-25T16:33:56;9.20;;;4.20;;
76752;SDS011;65687;51.308;16.916;2024-01-25T16:38:58;16.40;;;5.70;;
76752;SDS011;65687;51.308;16.916;2024-01-25T16:44:00;15.40;;;5.40;;
76752;SDS011;65687;51.308;16.916;2024-01-25T16:49:01;15.40;;;6.60;;
76752;SDS011;65687;51.308;16.916;2024-01-25T16:54:03;13.90;;;6.00;;
76752;SDS011;65687;51.308;16.916;2024-01-25T16:59:04;10.70;;;4.40;;
76752;SDS011;65687;51.308;16.916;2024-01-25T17:04:06;9.80;;;3.30;;
76752;SDS011;65687;51.308;16.916;2024-01-25T17:09:09;13.50;;;4.70;;
76752;SDS011;65687;51.308;16.916;2024-01-25T17:14:11;15.10;;;4.00;;
76752;SDS011;65687;51.308;16.916;2024-01-25T17:19:13;23.60;;;5.40;;
76752;SDS011;65687;51.308;16.916;2024-01-25T17:24:14;10.50;;;3.00;;
76752;SDS011;65687;51.308;16.916;2024-01-25T17:29:16;11.10;;;3.00;;
76752;SDS011;65687;51.308;16.916;2024-01-25T17:34:18;10.10;;;3.30;;
76752;SDS011;65687;51.308;16.916;2024-01-25T17:39:20;10.40;;;2.80;;
76752;SDS011;65687;51.308;16.916;2024-01-25T17:44:22;7.70;;;2.20;;
76752;SDS011;65687;51.308;16.916;2024-01-25T17:49:23;13.00;;;3.30;;
76752;SDS011;65687;51.308;16.916;2024-01-25T17:54:25;8.40;;;2.90;;
76752;SDS011;65687;51.308;16.916;2024-01-25T17:59:27;13.20;;;3.50;;
76752;SDS011;65687;51.308;16.916;2024-01-25T18:04:29;6.40;;;2.80;;
76752;SDS011;65687;51.308;16.916;2024-01-25T18:09:30;13.10;;;3.90;;
76752;SDS011;65687;51.308;16.916;2024-01-25T18:14:32;12.50;;;3.10;;
76752;SDS011;65687;51.308;16.916;2024-01-25T18:19:34;6.20;;;2.60;;
76752;SDS011;65687;51.308;16.916;2024-01-25T18:24:36;10.20;;;2.80;;
76752;SDS011;65687;51.308;16.916;2024-01-25T18:29:38;9.30;;;2.60;;
76752;SDS011;65687;51.308;16.916;2024-01-25T18:39:43;7.50;;;2.70;;
76752;SDS011;65687;51.308;16.916;2024-01-25T18:44:44;10.30;;;3.20;;
76752;SDS011;65687;51.308;16.916;2024-01-25T18:49:46;8.50;;;2.30;;
76752;SDS011;65687;51.308;16.916;2024-01-25T18:54:48;12.40;;;3.50;;
76752;SDS011;65687;51.308;16.916;2024-01-25T18:59:50;13.70;;;4.50;;
76752;SDS011;65687;51.308;16.916;2024-01-25T19:04:52;13.30;;;4.40;;
76752;SDS011;65687;51.308;16.916;2024-01-25T19:09:54;10.20;;;2.90;;
76752;SDS011;65687;51.308;16.916;2024-01-25T19:14:56;11.00;;;3.50;;
76752;SDS011;65687;51.308;16.916;2024-01-25T19:19:58;7.60;;;2.80;;
76752;SDS011;65687;51.308;16.916;2024-01-25T19:24:59;9.80;;;3.30;;
76752;SDS011;65687;51.308;16.916;2024-01-25T19:30:01;13.10;;;2.80;;
76752;SDS011;65687;51.308;16.916;2024-01-25T19:35:03;8.70;;;2.90;;
76752;SDS011;65687;51.308;16.916;2024-01-25T19:40:06;8.00;;;3.50;;
76752;SDS011;65687;51.308;16.916;2024-01-25T19:45:09;7.50;;;2.90;;
76752;SDS011;65687;51.308;16.916;2024-01-25T19:50:11;7.10;;;2.80;;
76752;SDS011;65687;51.308;16.916;2024-01-25T19:55:13;8.40;;;3.20;;
76752;SDS011;65687;51.308;16.916;2024-01-25T20:00:15;9.50;;;3.00;;
76752;SDS011;65687;51.308;16.916;2024-01-25T20:05:17;6.90;;;3.10;;
76752;SDS011;65687;51.308;16.916;2024-01-25T20:10:20;9.40;;;3.20;;
76752;SDS011;65687;51.308;16.916;2024-01-25T20:15:21;8.10;;;2.60;;
76752;SDS011;65687;51.308;16.916;2024-01-25T20:20:24;10.30;;;3.10;;
76752;SDS011;65687;51.308;16.916;2024-01-25T20:25:26;9.20;;;2.70;;
76752;SDS011;65687;51.308;16.916;2024-01-25T20:30:27;14.50;;;3.80;;
76752;SDS011;65687;51.308;16.916;2024-01-25T20:35:32;7.80;;;2.50;;
76752;SDS011;65687;51.308;16.916;2024-01-25T20:40:34;10.20;;;3.10;;
76752;SDS011;65687;51.308;16.916;2024-01-25T20:45:36;9.50;;;3.10;;
76752;SDS011;65687;51.308;16.916;2024-01-25T20:50:37;11.10;;;2.40;;
76752;SDS011;65687;51.308;16.916;2024-01-25T20:55:39;6.40;;;2.40;;
76752;SDS011;65687;51.308;16.916;2024-01-25T21:00:42;9.70;;;2.30;;
76752;SDS011;65687;51.308;16.916;2024-01-25T21:05:43;8.60;;;2.50;;
76752;SDS011;65687;51.308;16.916;2024-01-25T21:10:45;7.00;;;2.80;;
76752;SDS011;65687;51.308;16.916;2024-01-25T21:15:47;6.90;;;2.10;;
76752;SDS011;65687;51.308;16.916;2024-01-25T21:20:49;10.00;;;2.80;;
76752;SDS011;65687;51.308;16.916;2024-01-25T21:25:51;7.90;;;2.40;;
76752;SDS011;65687;51.308;16.916;2024-01-25T21:30:53;8.00;;;2.40;;
76752;SDS011;65687;51.308;16.916;2024-01-25T21:35:54;8.00;;;2.60;;
76752;SDS011;65687;51.308;16.916;2024-01-25T21:40:56;8.90;;;2.80;;
76752;SDS011;65687;51.308;16.916;2024-01-25T21:45:59;8.50;;;2.70;;
76752;SDS011;65687;51.308;16.916;2024-01-25T21:51:01;8.30;;;2.60;;
76752;SDS011;65687;51.308;16.916;2024-01-25T21:56:03;7.70;;;2.30;;
76752;SDS011;65687;51.308;16.916;2024-01-25T22:01:05;10.10;;;2.50;;
76752;SDS011;65687;51.308;16.916;2024-01-25T22:06:07;9.30;;;2.60;;
76752;SDS011;65687;51.308;16.916;2024-01-25T22:11:08;6.60;;;2.70;;
76752;SDS011;65687;51.308;16.916;2024-01-25T22:16:10;10.60;;;2.70;;
76752;SDS011;65687;51.308;16.916;2024-01-25T22:21:12;7.30;;;2.90;;
76752;SDS011;65687;51.308;16.916;2024-01-25T22:26:14;11.60;;;3.40;;
76752;SDS011;65687;51.308;16.916;2024-01-25T22:31:16;9.50;;;3.40;;
76752;SDS011;65687;51.308;16.916;2024-01-25T22:36:18;6.70;;;2.60;;
76752;SDS011;65687;51.308;16.916;2024-01-25T22:41:19;8.20;;;3.20;;
76752;SDS011;65687;51.308;16.916;2024-01-25T22:46:21;11.10;;;3.30;;
76752;SDS011;65687;51.308;16.916;2024-01-25T22:51:23;9.40;;;3.40;;
76752;SDS011;65687;51.308;16.916;2024-01-25T22:56:24;13.90;;;3.90;;
76752;SDS011;65687;51.308;16.916;2024-01-25T23:01:26;9.20;;;3.50;;
76752;SDS011;65687;51.308;16.916;2024-01-25T23:06:28;11.60;;;3.40;;
76752;SDS011;65687;51.308;16.916;2024-01-25T23:11:29;8.90;;;2.80;;
76752;SDS011;65687;51.308;16.916;2024-01-25T23:16:31;8.00;;;2.50;;
76752;SDS011;65687;51.308;16.916;2024-01-25T23:21:32;6.50;;;2.60;;
76752;SDS011;65687;51.308;16.916;2024-01-25T23:26:36;7.90;;;2.30;;
76752;SDS011;65687;51.308;16.916;2024-01-25T23:31:39;9.30;;;2.70;;
76752;SDS011;65687;51.308;16.916;2024-01-25T23:36:41;7.00;;;2.20;;
76752;SDS011;65687;51.308;16.916;2024-01-25T23:41:42;7.40;;;2.50;;
76752;SDS011;65687;51.308;16.916;2024-01-25T23:46:44;6.60;;;2.00;;
76752;SDS011;65687;51.308;16.916;2024-01-25T23:51:46;10.80;;;3.00;;
76752;SDS011;65687;51.308;16.916;2024-01-25T23:56:48;7.00;;;2.50;;
